Terminal Aerodrome Forecast
Issued by NWS Wilmington, OH

Current Version | Previous Version | Graphics & Text | Print | Product List | Glossary Off
Versions: 1 2 3 4 5 6 7 8 9 10 11 12 13 14 15 16 17 18 19 20 21

264
FTUS41 KILN 251734
TAFCMH
TAF
KCMH 251734Z 2518/2618 22012KT P6SM SCT035
     FM260000 26006KT P6SM SCT050
     FM260300 29004KT P6SM SCT250
     FM261000 VRB03KT 5SM BR BKN015
     FM261400 VRB04KT P6SM SCT025=

USA.gov is the U.S. government's official web portal to all federal, state and local government web resources and services.